Time;durP1;ratioP1;P1;durP2;ratioP2;P2;SDS_P1;SDS_P2;PMS_P1;PMS_P2;Temp;Humidity;BMP_temperature;BMP_pressure;BME280_temperature;BME280_humidity;BME280_pressure;Samples;Min_cycle;Max_cycle;Signal;HPM_P1;HPM_P2
2022/04/26 03:37:29;;;;;;;;;;;17.60;99.90;;;;;;5113952;28;19915;-47
2022/04/26 03:39:55;;;;;;;;;;;17.60;99.90;;;;;;5113836;28;20255;-45
2022/04/26 03:42:21;;;;;;;;;;;17.70;99.90;;;;;;5114145;28;19908;-52
2022/04/26 03:44:47;;;;;;;;;;;17.70;99.90;;;;;;5113794;28;19908;-46
2022/04/26 03:47:12;;;;;;;;;;;17.60;99.90;;;;;;5113773;28;19961;-49
2022/04/26 03:49:38;;;;;;;;;;;17.60;99.90;;;;;;5113797;28;19912;-49
2022/04/26 03:52:03;;;;;;;;;;;17.60;99.90;;;;;;5113866;28;19983;-48
2022/04/26 03:54:29;;;;;;;;;;;17.60;99.90;;;;;;5113921;28;19908;-48
2022/04/26 03:56:54;;;;;;;;;;;17.60;99.90;;;;;;5113965;28;19953;-46
2022/04/26 03:59:20;;;;;;;;;;;17.60;99.90;;;;;;5113560;28;19923;-45
2022/04/26 04:01:46;;;;;;;;;;;17.60;99.90;;;;;;5113939;28;19994;-45
2022/04/26 04:04:12;;;;;;;;;;;17.60;99.90;;;;;;5113693;28;19950;-48
2022/04/26 04:06:37;;;;;;;;;;;17.60;99.90;;;;;;5095666;28;19908;-47
2022/04/26 04:09:03;;;;;;;;;;;17.60;99.90;;;;;;5113530;28;19907;-46
2022/04/26 04:11:29;;;;;;;;;;;17.60;99.90;;;;;;5113813;28;19907;-48
2022/04/26 04:13:54;;;;;;;;;;;17.60;99.90;;;;;;5095537;28;20249;-48
2022/04/26 04:16:20;;;;;;;;;;;17.60;99.90;;;;;;5115589;28;19907;-44
2022/04/26 04:21:30;;;;;;;;;;;17.60;99.90;;;;;;5117131;28;19956;-46
2022/04/26 04:23:55;;;;;;;;;;;17.60;99.90;;;;;;5116977;28;19999;-47
2022/04/26 04:26:21;;;;;;;;;;;17.60;99.90;;;;;;5116888;28;20343;-46
2022/04/26 04:28:46;;;;;;;;;;;17.60;99.90;;;;;;5098795;28;20312;-47
2022/04/26 04:31:12;;;;;;;;;;;17.60;99.90;;;;;;5117151;28;19908;-45
2022/04/26 04:33:38;;;;;;;;;;;17.60;99.90;;;;;;5117127;28;19915;-45
2022/04/26 04:36:04;;;;;;;;;;;17.60;99.90;;;;;;5116767;28;19907;-47
2022/04/26 04:38:29;;;;;;;;;;;17.60;99.90;;;;;;5116722;28;20354;-46
2022/04/26 04:40:55;;;;;;;;;;;17.60;99.90;;;;;;5116647;28;19907;-44
2022/04/26 04:43:21;;;;;;;;;;;17.60;99.90;;;;;;5116694;28;19927;-45
2022/04/26 04:45:47;;;;;;;;;;;17.60;99.90;;;;;;5116580;28;19915;-44
2022/04/26 04:48:13;;;;;;;;;;;17.60;99.90;;;;;;5098511;28;19908;-47
2022/04/26 04:50:38;;;;;;;;;;;17.60;99.90;;;;;;5116417;28;19914;-46
2022/04/26 04:53:04;;;;;;;;;;;17.70;99.90;;;;;;5117015;28;20364;-45
2022/04/26 04:55:30;;;;;;;;;;;17.70;99.90;;;;;;5116450;28;19908;-46
2022/04/26 04:57:55;;;;;;;;;;;17.70;99.90;;;;;;5116556;28;20408;-48
2022/04/26 05:00:21;;;;;;;;;;;17.70;99.90;;;;;;5116415;28;19920;-47
2022/04/26 05:02:46;;;;;;;;;;;17.70;99.90;;;;;;5116403;28;19953;-48
2022/04/26 05:05:12;;;;;;;;;;;17.70;99.90;;;;;;5116006;28;19934;-47
2022/04/26 05:07:38;;;;;;;;;;;17.70;99.90;;;;;;5115857;28;19914;-50
2022/04/26 05:10:04;;;;;;;;;;;17.70;99.90;;;;;;5116058;28;19958;-48
2022/04/26 05:12:30;;;;;;;;;;;17.70;99.90;;;;;;5098029;28;19972;-46
2022/04/26 05:14:55;;;;;;;;;;;17.70;99.90;;;;;;5115942;28;19951;-51
2022/04/26 05:17:21;;;;;;;;;;;17.70;99.90;;;;;;5115704;28;20298;-47
2022/04/26 05:19:46;;;;;;;;;;;17.70;99.90;;;;;;5115654;28;19922;-48
2022/04/26 05:22:12;;;;;;;;;;;17.70;99.90;;;;;;5116084;28;19908;-48
2022/04/26 05:24:53;;;;;;;;;;;17.70;99.90;;;;;;5115529;28;19911;-46
2022/04/26 05:27:19;;;;;;;;;;;17.70;99.90;;;;;;5115417;28;20266;-48
2022/04/26 05:29:45;;;;;;;;;;;17.70;99.90;;;;;;5115804;28;19954;-50
2022/04/26 05:32:10;;;;;;;;;;;17.70;99.90;;;;;;5115910;28;19978;-47
2022/04/26 05:34:36;;;;;;;;;;;17.70;99.90;;;;;;5115457;28;19907;-50
2022/04/26 05:37:01;;;;;;;;;;;17.70;99.90;;;;;;5115492;28;19908;-50
2022/04/26 05:39:27;;;;;;;;;;;17.70;99.90;;;;;;5114981;28;19920;-49
2022/04/26 05:41:53;;;;;;;;;;;17.70;99.90;;;;;;5115396;28;19908;-49
2022/04/26 05:44:19;;;;;;;;;;;17.70;99.90;;;;;;5079706;28;20522;-46
2022/04/26 05:46:44;;;;;;;;;;;17.70;99.90;;;;;;5115343;28;19908;-46
2022/04/26 05:49:10;;;;;;;;;;;17.70;99.90;;;;;;5115186;28;19912;-47
2022/04/26 05:51:35;;;;;;;;;;;17.70;99.90;;;;;;5115524;28;19953;-47
2022/04/26 05:54:01;;;;;;;;;;;17.70;99.90;;;;;;5115124;28;19912;-45
2022/04/26 05:56:27;;;;;;;;;;;17.60;99.90;;;;;;5115232;28;19908;-44
2022/04/26 05:58:52;;;;;;;;;;;17.60;99.90;;;;;;5115049;28;19923;-47
2022/04/26 06:01:18;;;;;;;;;;;17.60;99.90;;;;;;5114819;28;19908;-47
2022/04/26 06:03:43;;;;;;;;;;;17.70;99.90;;;;;;5115028;28;19931;-49
2022/04/26 06:06:09;;;;;;;;;;;17.70;99.90;;;;;;5114764;28;19923;-50
2022/04/26 06:08:34;;;;;;;;;;;17.70;99.90;;;;;;5115178;28;20365;-45
2022/04/26 06:11:00;;;;;;;;;;;17.70;99.90;;;;;;5114648;28;20011;-47
2022/04/26 06:13:26;;;;;;;;;;;17.70;99.90;;;;;;5114448;28;19931;-46
2022/04/26 06:15:52;;;;;;;;;;;17.70;99.90;;;;;;5114994;28;19943;-50
2022/04/26 06:18:17;;;;;;;;;;;17.60;99.90;;;;;;5114781;28;19961;-49
2022/04/26 06:20:43;;;;;;;;;;;17.70;99.90;;;;;;5114365;28;19923;-47
2022/04/26 06:23:09;;;;;;;;;;;17.70;99.90;;;;;;5114374;28;19914;-46
2022/04/26 06:25:36;;;;;;;;;;;17.70;99.90;;;;;;5114384;28;19912;-46
2022/04/26 06:28:03;;;;;;;;;;;17.70;99.90;;;;;;5114367;28;19941;-46
2022/04/26 06:30:29;;;;;;;;;;;17.70;99.90;;;;;;5114249;28;20366;-47
2022/04/26 06:32:54;;;;;;;;;;;17.80;99.90;;;;;;5114632;28;19927;-45
2022/04/26 06:35:20;;;;;;;;;;;17.70;99.90;;;;;;5096228;28;20348;-45
2022/04/26 06:37:45;;;;;;;;;;;17.70;99.90;;;;;;5114243;28;20339;-45
2022/04/26 06:40:11;;;;;;;;;;;17.70;99.90;;;;;;5113660;28;19919;-50
2022/04/26 06:42:36;;;;;;;;;;;17.70;99.90;;;;;;5096139;28;19907;-45
2022/04/26 06:45:02;;;;;;;;;;;17.70;99.90;;;;;;5114120;28;19910;-45
2022/04/26 06:47:27;;;;;;;;;;;17.70;99.90;;;;;;5114373;28;19908;-46
2022/04/26 06:49:53;;;;;;;;;;;17.70;99.90;;;;;;5113747;28;20456;-47
2022/04/26 06:52:18;;;;;;;;;;;17.70;99.90;;;;;;5113760;28;19918;-45
2022/04/26 06:54:45;;;;;;;;;;;17.80;99.90;;;;;;5113790;28;19983;-47
2022/04/26 06:57:11;;;;;;;;;;;17.80;99.90;;;;;;5113601;28;19914;-48
2022/04/26 06:59:39;;;;;;;;;;;17.80;99.90;;;;;;5114174;28;19916;-49
2022/04/26 07:02:04;;;;;;;;;;;17.80;99.90;;;;;;5114292;28;19915;-45
2022/04/26 07:04:30;;;;;;;;;;;17.70;99.90;;;;;;5114127;28;19908;-47
2022/04/26 07:06:55;;;;;;;;;;;17.80;99.90;;;;;;5114260;28;20278;-49
2022/04/26 07:09:22;;;;;;;;;;;17.80;99.90;;;;;;5114556;28;19919;-48
2022/04/26 07:11:47;;;;;;;;;;;17.80;99.90;;;;;;5113965;28;20370;-46
2022/04/26 07:14:13;;;;;;;;;;;17.90;99.90;;;;;;5113980;28;19937;-49
2022/04/26 07:16:38;;;;;;;;;;;17.90;99.90;;;;;;5113815;28;19930;-50
2022/04/26 07:19:04;;;;;;;;;;;17.90;99.90;;;;;;5113692;28;19916;-48
2022/04/26 07:21:30;;;;;;;;;;;17.90;99.90;;;;;;5095932;28;19908;-47
2022/04/26 07:23:55;;;;;;;;;;;17.90;99.90;;;;;;5113938;28;19914;-48
2022/04/26 07:26:21;;;;;;;;;;;17.90;99.90;;;;;;5114363;28;19918;-46
2022/04/26 07:28:46;;;;;;;;;;;17.90;99.90;;;;;;5114005;28;19908;-46
2022/04/26 07:31:12;;;;;;;;;;;17.90;99.90;;;;;;5114015;28;19952;-50
2022/04/26 07:36:22;;;;;;;;;;;17.90;99.90;;;;;;5114155;28;19918;-47
2022/04/26 07:38:50;;;;;;;;;;;17.90;99.90;;;;;;5113942;28;19915;-46
2022/04/26 07:41:16;;;;;;;;;;;17.90;99.90;;;;;;5113981;28;19991;-48
2022/04/26 07:43:42;;;;;;;;;;;17.90;99.90;;;;;;5114056;28;20347;-47
2022/04/26 07:46:08;;;;;;;;;;;17.90;99.90;;;;;;5114312;28;19908;-47
2022/04/26 07:48:34;;;;;;;;;;;17.90;99.90;;;;;;5113889;28;19915;-46
2022/04/26 07:50:59;;;;;;;;;;;17.90;99.90;;;;;;5115474;28;19958;-46
2022/04/26 07:53:26;;;;;;;;;;;17.90;99.90;;;;;;5117531;28;19983;-46
2022/04/26 07:55:52;;;;;;;;;;;17.90;99.90;;;;;;5133844;27;19908;-47
2022/04/26 07:58:18;;;;;;;;;;;17.90;99.90;;;;;;5117899;28;19912;-48
2022/04/26 08:00:43;;;;;;;;;;;17.90;99.90;;;;;;5099617;28;20010;-49
2022/04/26 08:03:09;;;;;;;;;;;17.90;99.90;;;;;;5117563;28;19973;-47
2022/04/26 08:05:34;;;;;;;;;;;17.90;99.90;;;;;;5117416;28;19908;-46
2022/04/26 08:08:00;;;;;;;;;;;17.80;99.90;;;;;;5117775;28;19977;-49
2022/04/26 08:10:25;;;;;;;;;;;17.80;99.90;;;;;;5117667;28;19908;-47
2022/04/26 08:12:51;;;;;;;;;;;17.90;99.90;;;;;;5117194;28;20393;-50
2022/04/26 08:15:18;;;;;;;;;;;17.80;99.90;;;;;;5117438;28;19908;-50
2022/04/26 08:17:44;;;;;;;;;;;17.80;99.90;;;;;;5117195;28;19907;-47
2022/04/26 08:20:10;;;;;;;;;;;17.80;99.90;;;;;;5116681;28;19922;-44
2022/04/26 08:22:37;;;;;;;;;;;17.90;99.90;;;;;;5116786;28;20351;-45
2022/04/26 08:27:47;;;;;;;;;;;17.90;99.90;;;;;;5117191;28;20312;-44
2022/04/26 08:30:12;;;;;;;;;;;17.80;99.90;;;;;;5098584;28;19908;-45
2022/04/26 08:32:42;;;;;;;;;;;17.80;99.90;;;;;;5116920;28;20369;-44
2022/04/26 08:35:10;;;;;;;;;;;17.90;99.90;;;;;;5116833;28;19908;-47
2022/04/26 08:37:36;;;;;;;;;;;17.80;99.90;;;;;;5116831;28;19915;-48
2022/04/26 08:40:04;;;;;;;;;;;17.80;99.90;;;;;;5116623;28;19920;-46
2022/04/26 08:42:37;;;;;;;;;;;17.80;99.90;;;;;;5116423;28;19914;-46
2022/04/26 08:45:04;;;;;;;;;;;17.90;99.90;;;;;;5116491;28;20241;-49
2022/04/26 08:52:58;;;;;;;;;;;17.90;99.90;;;;;;5116529;28;19931;-45
2022/04/26 08:55:24;;;;;;;;;;;17.90;99.90;;;;;;5116443;28;20010;-48
2022/04/26 08:57:50;;;;;;;;;;;17.90;99.90;;;;;;5116127;28;19963;-48
2022/04/26 09:00:16;;;;;;;;;;;17.90;99.90;;;;;;5116538;28;19916;-45
2022/04/26 09:02:42;;;;;;;;;;;17.90;99.90;;;;;;5115485;28;19918;-45
2022/04/26 09:05:11;;;;;;;;;;;17.90;99.90;;;;;;5116166;28;20266;-45
2022/04/26 09:07:37;;;;;;;;;;;17.90;99.90;;;;;;5116737;28;19914;-46
2022/04/26 09:10:06;;;;;;;;;;;17.90;99.90;;;;;;5116303;28;19999;-49
2022/04/26 09:12:31;;;;;;;;;;;17.90;99.90;;;;;;5116443;28;19912;-46
2022/04/26 09:15:11;;;;;;;;;;;17.90;99.90;;;;;;5116685;28;19953;-48
2022/04/26 09:17:37;;;;;;;;;;;17.90;99.90;;;;;;5116205;28;19907;-44
2022/04/26 09:20:04;;;;;;;;;;;17.90;99.90;;;;;;5115723;28;19922;-47
2022/04/26 09:22:30;;;;;;;;;;;17.90;99.90;;;;;;5116058;28;19908;-46
2022/04/26 09:25:04;;;;;;;;;;;17.90;99.90;;;;;;5115683;28;19908;-47
2022/04/26 09:27:30;;;;;;;;;;;17.90;99.90;;;;;;5115906;28;19907;-46
2022/04/26 09:29:56;;;;;;;;;;;17.90;99.90;;;;;;5115883;28;19908;-48
2022/04/26 09:32:23;;;;;;;;;;;17.90;99.90;;;;;;5115433;28;19931;-47
2022/04/26 09:34:49;;;;;;;;;;;17.90;99.90;;;;;;5115459;28;19908;-46
2022/04/26 09:37:16;;;;;;;;;;;18.00;99.90;;;;;;5115578;28;19908;-44
2022/04/26 09:40:02;;;;;;;;;;;17.90;99.90;;;;;;5114996;28;20413;-45
2022/04/26 09:42:28;;;;;;;;;;;17.90;99.90;;;;;;5115231;28;19931;-46
2022/04/26 09:45:02;;;;;;;;;;;17.90;99.90;;;;;;5115232;28;19908;-50
2022/04/26 09:47:41;;;;;;;;;;;17.90;99.90;;;;;;5115138;28;19908;-47
2022/04/26 09:50:11;;;;;;;;;;;17.90;99.90;;;;;;5115040;28;19954;-46
2022/04/26 09:52:36;;;;;;;;;;;17.90;99.90;;;;;;5115411;28;19915;-46
2022/04/26 09:55:06;;;;;;;;;;;17.90;99.90;;;;;;5115347;28;19908;-45
2022/04/26 09:57:31;;;;;;;;;;;17.90;99.90;;;;;;5097286;28;19918;-49
2022/04/26 09:59:59;;;;;;;;;;;17.90;99.90;;;;;;5115125;28;19916;-49
2022/04/26 10:02:29;;;;;;;;;;;17.90;99.90;;;;;;5115373;28;20316;-47
2022/04/26 10:04:55;;;;;;;;;;;17.90;99.90;;;;;;5115046;28;19951;-48
2022/04/26 10:07:22;;;;;;;;;;;17.90;99.90;;;;;;5114763;28;19961;-45
2022/04/26 10:09:48;;;;;;;;;;;17.90;99.90;;;;;;5115074;28;19915;-49
2022/04/26 10:12:14;;;;;;;;;;;17.90;99.90;;;;;;5096619;28;20282;-45
2022/04/26 10:14:40;;;;;;;;;;;17.90;99.90;;;;;;5114859;28;19908;-44
2022/04/26 10:17:07;;;;;;;;;;;17.90;99.90;;;;;;5096892;28;19998;-45
2022/04/26 10:19:37;;;;;;;;;;;17.90;99.90;;;;;;5114587;28;19967;-47
2022/04/26 10:22:03;;;;;;;;;;;18.00;99.90;;;;;;5114655;28;19908;-46
2022/04/26 10:24:28;;;;;;;;;;;17.90;99.90;;;;;;5114665;28;19908;-48
2022/04/26 10:27:14;;;;;;;;;;;17.90;99.90;;;;;;5096728;28;19968;-46
2022/04/26 10:29:43;;;;;;;;;;;17.90;99.90;;;;;;5114699;28;20373;-46
2022/04/26 10:32:10;;;;;;;;;;;17.90;99.90;;;;;;5114450;28;19961;-48
2022/04/26 10:34:36;;;;;;;;;;;17.90;99.90;;;;;;5114432;28;19908;-48
2022/04/26 10:37:02;;;;;;;;;;;17.90;99.90;;;;;;5114460;28;19907;-44
2022/04/26 10:39:51;;;;;;;;;;;17.90;99.90;;;;;;5096061;28;19916;-45
2022/04/26 10:42:17;;;;;;;;;;;17.90;99.90;;;;;;5114398;28;19908;-49
2022/04/26 10:44:44;;;;;;;;;;;17.90;99.90;;;;;;5114338;28;19907;-47
2022/04/26 10:47:10;;;;;;;;;;;17.90;99.90;;;;;;5114557;28;19914;-48
2022/04/26 10:49:36;;;;;;;;;;;17.90;99.90;;;;;;5113916;28;19908;-48
2022/04/26 10:52:22;;;;;;;;;;;17.90;99.90;;;;;;5114418;28;19912;-47
2022/04/26 10:55:03;;;;;;;;;;;17.90;99.90;;;;;;5114277;28;19908;-46
2022/04/26 10:57:30;;;;;;;;;;;17.90;99.90;;;;;;5114017;28;19908;-47
2022/04/26 11:00:09;;;;;;;;;;;17.90;99.90;;;;;;5113924;28;20018;-48
2022/04/26 11:02:36;;;;;;;;;;;17.90;99.90;;;;;;5114117;28;19912;-48
2022/04/26 11:05:02;;;;;;;;;;;17.90;99.90;;;;;;5114171;28;19915;-48
2022/04/26 11:07:29;;;;;;;;;;;17.90;99.90;;;;;;5114059;28;19908;-45
2022/04/26 11:09:59;;;;;;;;;;;17.90;99.90;;;;;;5113913;28;19912;-47
2022/04/26 11:12:25;;;;;;;;;;;17.90;99.90;;;;;;5114166;28;19908;-45
2022/04/26 11:14:52;;;;;;;;;;;17.90;99.90;;;;;;5113675;28;20255;-49
2022/04/26 11:17:18;;;;;;;;;;;17.90;99.90;;;;;;5113761;28;19943;-50
2022/04/26 11:20:07;;;;;;;;;;;18.00;99.90;;;;;;5113643;28;19915;-44
2022/04/26 11:22:41;;;;;;;;;;;17.90;99.90;;;;;;5107842;28;20270;-47
2022/04/26 11:28:01;;;;;;;;;;;17.90;99.90;;;;;;5118044;28;19976;-46
2022/04/26 11:30:31;;;;;;;;;;;17.90;99.90;;;;;;5118141;28;19957;-48
2022/04/26 11:32:57;;;;;;;;;;;18.00;99.90;;;;;;5118227;28;19958;-48
2022/04/26 11:35:23;;;;;;;;;;;17.90;99.90;;;;;;5117934;28;20273;-48
2022/04/26 11:37:50;;;;;;;;;;;17.90;99.90;;;;;;5118111;28;19908;-44
2022/04/26 11:40:24;;;;;;;;;;;17.90;99.90;;;;;;5117944;28;19916;-49
2022/04/26 11:42:50;;;;;;;;;;;17.90;99.90;;;;;;5099396;28;19950;-48
2022/04/26 11:45:16;;;;;;;;;;;17.90;99.90;;;;;;5117718;28;19951;-47
2022/04/26 11:47:42;;;;;;;;;;;17.90;99.90;;;;;;5117798;28;19955;-48
2022/04/26 11:50:12;;;;;;;;;;;17.90;99.90;;;;;;5117560;28;19931;-49
2022/04/26 11:52:38;;;;;;;;;;;17.90;99.90;;;;;;5117638;28;19930;-50
2022/04/26 11:55:05;;;;;;;;;;;17.90;99.90;;;;;;5117315;28;20303;-49
2022/04/26 11:57:33;;;;;;;;;;;17.90;99.90;;;;;;5117335;28;19908;-48
2022/04/26 11:59:59;;;;;;;;;;;17.90;99.90;;;;;;5117359;28;19947;-46
2022/04/26 12:02:25;;;;;;;;;;;17.90;99.90;;;;;;5099173;28;19908;-48
2022/04/26 12:04:52;;;;;;;;;;;17.90;99.90;;;;;;5117223;28;19990;-47
2022/04/26 12:07:18;;;;;;;;;;;17.90;99.90;;;;;;5117206;28;20263;-44
2022/04/26 12:09:43;;;;;;;;;;;17.90;99.90;;;;;;5117009;28;19921;-46
2022/04/26 12:12:11;;;;;;;;;;;17.90;99.90;;;;;;5116781;28;19908;-47
2022/04/26 12:14:38;;;;;;;;;;;17.90;99.90;;;;;;5099233;28;19954;-46
2022/04/26 12:17:14;;;;;;;;;;;17.90;99.90;;;;;;5117129;28;19908;-48
2022/04/26 12:19:41;;;;;;;;;;;17.90;99.90;;;;;;5117038;28;19919;-46
2022/04/26 12:22:07;;;;;;;;;;;18.00;99.90;;;;;;5116832;28;19908;-45
2022/04/26 12:24:52;;;;;;;;;;;17.90;99.90;;;;;;5116967;28;19915;-45
2022/04/26 12:27:26;;;;;;;;;;;17.90;99.90;;;;;;5116236;28;20372;-47
2022/04/26 12:29:52;;;;;;;;;;;17.90;99.90;;;;;;5116610;28;19916;-46
2022/04/26 12:32:19;;;;;;;;;;;17.90;99.90;;;;;;5116985;28;19996;-45
2022/04/26 12:34:48;;;;;;;;;;;17.90;99.90;;;;;;5116509;28;19908;-49
2022/04/26 12:37:23;;;;;;;;;;;17.90;99.90;;;;;;5116083;28;19908;-49
2022/04/26 12:39:58;;;;;;;;;;;17.90;99.90;;;;;;5116528;28;19922;-48
2022/04/26 12:42:27;;;;;;;;;;;17.90;99.90;;;;;;5116847;28;19933;-50
2022/04/26 12:44:56;;;;;;;;;;;17.90;99.90;;;;;;5116394;28;19919;-45
2022/04/26 12:52:51;;;;;;;;;;;17.90;99.90;;;;;;5115941;28;20337;-46
2022/04/26 12:55:28;;;;;;;;;;;17.90;99.90;;;;;;5116454;28;19944;-49
2022/04/26 12:57:56;;;;;;;;;;;17.90;99.90;;;;;;5116133;28;19915;-48
2022/04/26 13:00:22;;;;;;;;;;;17.90;99.90;;;;;;5116561;28;19920;-44
2022/04/26 13:02:48;;;;;;;;;;;17.90;99.90;;;;;;5116412;28;19931;-45
2022/04/26 13:05:15;;;;;;;;;;;17.90;99.90;;;;;;5115879;28;19908;-47
2022/04/26 13:07:41;;;;;;;;;;;17.90;99.90;;;;;;5116084;28;20342;-49
2022/04/26 13:10:06;;;;;;;;;;;17.90;99.90;;;;;;5116642;28;19943;-47
2022/04/26 13:12:32;;;;;;;;;;;17.90;99.90;;;;;;5116219;28;19965;-45
2022/04/26 13:14:58;;;;;;;;;;;17.90;99.90;;;;;;5115834;28;19911;-47
2022/04/26 13:17:24;;;;;;;;;;;17.90;99.90;;;;;;5116039;28;19908;-48
2022/04/26 13:19:49;;;;;;;;;;;18.00;99.90;;;;;;5115965;28;19922;-47
2022/04/26 13:22:16;;;;;;;;;;;18.00;99.90;;;;;;5116076;28;19907;-48
2022/04/26 13:24:42;;;;;;;;;;;18.00;99.90;;;;;;5116025;28;19947;-48
2022/04/26 13:27:07;;;;;;;;;;;18.00;99.90;;;;;;5116010;28;20299;-48
2022/04/26 13:29:33;;;;;;;;;;;18.00;99.90;;;;;;5115835;28;19908;-48
2022/04/26 13:31:59;;;;;;;;;;;17.90;99.90;;;;;;5115124;28;20374;-48
2022/04/26 13:34:24;;;;;;;;;;;18.00;99.90;;;;;;5115805;28;19957;-48
2022/04/26 13:36:51;;;;;;;;;;;18.00;99.90;;;;;;5115484;28;19908;-49
2022/04/26 13:39:16;;;;;;;;;;;18.00;99.90;;;;;;5115471;28;19916;-46
2022/04/26 13:41:42;;;;;;;;;;;18.00;99.90;;;;;;5115625;28;19908;-46
2022/04/26 13:44:07;;;;;;;;;;;18.10;99.90;;;;;;5097343;28;19907;-45
2022/04/26 13:46:33;;;;;;;;;;;18.10;99.90;;;;;;5115370;28;19915;-48
2022/04/26 13:48:58;;;;;;;;;;;18.10;99.90;;;;;;5114920;28;19915;-46
2022/04/26 13:51:29;;;;;;;;;;;18.10;99.90;;;;;;5115006;28;19939;-48
2022/04/26 13:53:54;;;;;;;;;;;18.10;99.90;;;;;;5115191;28;19915;-49
2022/04/26 13:56:20;;;;;;;;;;;18.10;99.90;;;;;;5114900;28;19908;-48
2022/04/26 13:58:45;;;;;;;;;;;18.10;99.90;;;;;;5115279;28;19914;-50
2022/04/26 14:01:11;;;;;;;;;;;18.10;99.90;;;;;;5115186;28;19955;-47
2022/04/26 14:03:37;;;;;;;;;;;18.10;99.90;;;;;;5114862;28;19991;-47
2022/04/26 14:06:02;;;;;;;;;;;18.10;99.90;;;;;;5114920;28;19951;-50
2022/04/26 14:08:30;;;;;;;;;;;18.10;99.90;;;;;;5114455;28;20350;-45
2022/04/26 14:10:56;;;;;;;;;;;18.10;99.90;;;;;;5114874;28;19908;-45
2022/04/26 14:13:22;;;;;;;;;;;18.10;99.90;;;;;;5114851;28;19919;-46
2022/04/26 14:24:03;;;;;;;;;;;18.10;99.90;;;;;;5114410;28;19958;-46
2022/04/26 14:26:29;;;;;;;;;;;18.10;99.90;;;;;;5096049;28;19951;-47
2022/04/26 14:28:55;;;;;;;;;;;18.10;99.90;;;;;;5114386;28;20046;-45
2022/04/26 14:31:20;;;;;;;;;;;18.00;99.90;;;;;;5114648;28;19957;-47
2022/04/26 14:33:46;;;;;;;;;;;18.10;99.90;;;;;;5114474;28;19958;-47
2022/04/26 14:36:11;;;;;;;;;;;18.00;99.90;;;;;;5114273;28;20357;-46
2022/04/26 14:38:37;;;;;;;;;;;18.00;99.90;;;;;;5114146;28;19908;-47
2022/04/26 14:41:02;;;;;;;;;;;18.00;99.90;;;;;;5114047;28;19968;-45
2022/04/26 14:43:28;;;;;;;;;;;18.00;99.90;;;;;;5114323;28;19908;-45
2022/04/26 14:45:55;;;;;;;;;;;18.00;99.90;;;;;;5114096;28;19908;-47
2022/04/26 14:48:20;;;;;;;;;;;18.00;99.90;;;;;;5114034;28;19915;-46
2022/04/26 14:50:46;;;;;;;;;;;18.00;99.90;;;;;;5113845;28;19908;-47
2022/04/26 14:53:11;;;;;;;;;;;18.00;99.90;;;;;;5113355;28;19918;-49
2022/04/26 14:55:38;;;;;;;;;;;18.00;99.90;;;;;;5113657;28;19919;-45
2022/04/26 14:58:04;;;;;;;;;;;18.00;99.90;;;;;;5114053;28;20402;-49
2022/04/26 15:00:29;;;;;;;;;;;18.00;99.90;;;;;;5113203;28;20014;-45
2022/04/26 15:02:55;;;;;;;;;;;18.00;99.90;;;;;;5114070;28;19908;-49
2022/04/26 15:05:23;;;;;;;;;;;18.00;99.90;;;;;;5095745;28;20006;-46
2022/04/26 15:10:32;;;;;;;;;;;18.00;99.90;;;;;;5113873;28;19957;-45
2022/04/26 15:18:26;;;;;;;;;;;18.00;99.90;;;;;;5114094;28;19915;-48
2022/04/26 15:20:52;;;;;;;;;;;18.10;99.90;;;;;;5113756;28;19924;-51
2022/04/26 15:23:18;;;;;;;;;;;18.10;99.90;;;;;;5113863;28;19908;-52
2022/04/26 15:25:55;;;;;;;;;;;17.90;99.90;;;;;;5095165;28;20258;-53
2022/04/26 15:28:21;;;;;;;;;;;17.10;99.90;;;;;;5113699;28;19908;-49
2022/04/26 15:30:48;;;;;;;;;;;16.40;99.90;;;;;;5113639;28;19908;-52
2022/04/26 15:33:14;;;;;;;;;;;16.10;99.90;;;;;;5114543;28;19919;-54
2022/04/26 15:35:42;;;;;;;;;;;15.90;99.90;;;;;;5113650;28;19908;-51
2022/04/26 15:38:10;;;;;;;;;;;16.00;99.90;;;;;;5113481;28;20366;-50
2022/04/26 15:40:36;;;;;;;;;;;16.40;99.90;;;;;;5095633;28;20295;-49
2022/04/26 15:43:04;;;;;;;;;;;16.70;99.90;;;;;;5113568;28;19912;-51
2022/04/26 15:45:29;;;;;;;;;;;17.00;99.90;;;;;;5113208;28;19961;-48
2022/04/26 15:47:55;;;;;;;;;;;17.20;99.90;;;;;;5113105;28;20341;-51
2022/04/26 15:50:20;;;;;;;;;;;17.40;99.90;;;;;;5095013;28;20269;-48
2022/04/26 15:52:46;;;;;;;;;;;17.50;99.90;;;;;;5113414;28;19908;-49
2022/04/26 15:55:12;;;;;;;;;;;17.60;99.90;;;;;;5113431;28;20045;-49
2022/04/26 15:57:38;;;;;;;;;;;17.70;99.90;;;;;;5095383;28;19915;-50
2022/04/26 16:00:05;;;;;;;;;;;17.80;99.90;;;;;;5113150;28;19915;-51
2022/04/26 16:02:31;;;;;;;;;;;17.80;99.90;;;;;;5113399;28;19999;-49
2022/04/26 16:04:57;;;;;;;;;;;17.90;99.90;;;;;;5113564;28;19950;-50
2022/04/26 16:07:22;;;;;;;;;;;17.60;99.90;;;;;;5113376;28;20282;-47
2022/04/26 16:21:03;;;;;;;;;;;17.30;99.90;;;;;;5014446;28;20020;-50
2022/04/26 16:23:29;;;;;;;;;;;17.30;99.90;;;;;;5082676;28;20261;-51
2022/04/26 16:26:01;;;;;;;;;;;17.20;99.90;;;;;;5117041;28;19915;-48
2022/04/26 16:28:29;;;;;;;;;;;17.20;99.90;;;;;;5116270;28;20373;-52
2022/04/26 16:30:55;;;;;;;;;;;17.20;99.90;;;;;;5116559;28;19976;-48
2022/04/26 16:33:20;;;;;;;;;;;17.10;99.90;;;;;;5116916;28;19919;-52
2022/04/26 16:35:46;;;;;;;;;;;17.00;99.90;;;;;;5116581;28;20274;-47
2022/04/26 16:38:11;;;;;;;;;;;17.00;99.90;;;;;;5116290;28;19915;-52
2022/04/26 16:40:37;;;;;;;;;;;17.00;99.90;;;;;;5116647;28;19923;-52
2022/04/26 16:43:03;;;;;;;;;;;17.00;99.90;;;;;;5116636;28;19908;-51
2022/04/26 16:45:28;;;;;;;;;;;17.00;99.90;;;;;;5116582;28;19930;-49
2022/04/26 16:47:54;;;;;;;;;;;17.00;99.90;;;;;;5116778;28;19908;-49
2022/04/26 16:50:20;;;;;;;;;;;16.90;99.90;;;;;;5097971;28;20357;-49
2022/04/26 16:52:46;;;;;;;;;;;16.90;99.90;;;;;;5116049;28;19944;-49
2022/04/26 16:55:12;;;;;;;;;;;17.00;99.90;;;;;;5116375;28;19919;-48
2022/04/26 16:57:37;;;;;;;;;;;17.10;99.90;;;;;;5116133;28;20282;-52
2022/04/26 17:00:04;;;;;;;;;;;17.10;99.90;;;;;;5116087;28;19916;-50
2022/04/26 17:02:30;;;;;;;;;;;17.10;99.90;;;;;;5116017;28;20379;-48
2022/04/26 17:04:56;;;;;;;;;;;17.10;99.90;;;;;;5116680;28;19911;-51
2022/04/26 17:07:21;;;;;;;;;;;17.10;99.90;;;;;;5098033;28;19964;-46
2022/04/26 17:09:47;;;;;;;;;;;17.10;99.90;;;;;;5115864;28;19912;-51
2022/04/26 17:12:14;;;;;;;;;;;17.10;99.90;;;;;;5115845;28;19908;-49
2022/04/26 17:14:41;;;;;;;;;;;17.10;99.90;;;;;;5097539;28;20346;-50
2022/04/26 17:17:08;;;;;;;;;;;17.10;99.90;;;;;;5115943;28;19961;-47
2022/04/26 17:19:33;;;;;;;;;;;17.10;99.90;;;;;;5116335;28;19916;-48
2022/04/26 17:22:01;;;;;;;;;;;17.10;99.90;;;;;;5116423;28;19907;-49
2022/04/26 17:27:11;;;;;;;;;;;17.10;99.90;;;;;;5115938;28;19966;-49
2022/04/26 17:29:37;;;;;;;;;;;17.00;99.90;;;;;;5115570;28;20419;-47
2022/04/26 17:32:03;;;;;;;;;;;17.00;99.90;;;;;;5115544;28;20007;-51
2022/04/26 17:34:28;;;;;;;;;;;16.90;99.90;;;;;;5115665;28;19908;-49
2022/04/26 17:36:54;;;;;;;;;;;16.90;99.90;;;;;;5115710;28;19908;-51
2022/04/26 17:39:20;;;;;;;;;;;16.90;99.90;;;;;;5115744;28;20347;-50
2022/04/26 17:41:47;;;;;;;;;;;16.80;99.90;;;;;;5115533;28;19930;-49
2022/04/26 17:44:13;;;;;;;;;;;16.80;99.90;;;;;;5115769;28;20303;-46
2022/04/26 17:46:40;;;;;;;;;;;16.70;99.90;;;;;;5115399;28;19964;-49
2022/04/26 17:49:06;;;;;;;;;;;16.70;99.90;;;;;;5115220;28;19908;-49
2022/04/26 17:51:32;;;;;;;;;;;16.70;99.90;;;;;;5131247;27;19971;-48
2022/04/26 17:56:42;;;;;;;;;;;16.60;99.90;;;;;;5115231;28;19919;-49
2022/04/26 17:59:08;;;;;;;;;;;16.60;99.90;;;;;;5115434;28;19953;-50
2022/04/26 18:01:36;;;;;;;;;;;16.60;99.90;;;;;;5115266;28;19908;-48
2022/04/26 18:04:02;;;;;;;;;;;16.50;99.90;;;;;;5115205;28;19926;-49
2022/04/26 18:06:28;;;;;;;;;;;16.50;99.90;;;;;;5115055;28;19969;-49
2022/04/26 18:08:53;;;;;;;;;;;16.40;99.90;;;;;;5114922;28;20296;-50
2022/04/26 18:11:19;;;;;;;;;;;16.40;99.90;;;;;;5115016;28;20336;-45
2022/04/26 18:13:47;;;;;;;;;;;16.50;99.90;;;;;;5115046;28;20425;-47
2022/04/26 18:16:13;;;;;;;;;;;16.50;99.90;;;;;;5096849;28;19915;-49
2022/04/26 18:18:38;;;;;;;;;;;16.70;99.90;;;;;;5114953;28;19908;-48
2022/04/26 18:21:04;;;;;;;;;;;16.80;99.90;;;;;;5096574;28;20389;-50
2022/04/26 18:23:30;;;;;;;;;;;16.90;99.90;;;;;;5114976;28;19908;-46
2022/04/26 18:26:11;;;;;;;;;;;17.00;99.90;;;;;;5114879;28;19908;-48
2022/04/26 18:28:50;;;;;;;;;;;17.10;99.90;;;;;;5114361;28;19956;-45
2022/04/26 18:31:16;;;;;;;;;;;17.30;99.90;;;;;;5114808;28;19907;-47
2022/04/26 18:33:43;;;;;;;;;;;17.30;99.90;;;;;;5114873;28;19911;-46
2022/04/26 18:36:09;;;;;;;;;;;17.50;99.90;;;;;;5114517;28;19991;-47
2022/04/26 18:38:36;;;;;;;;;;;17.60;99.90;;;;;;5114114;28;19958;-48
2022/04/26 18:41:02;;;;;;;;;;;17.70;99.90;;;;;;5114443;28;20037;-48
2022/04/26 18:43:27;;;;;;;;;;;17.80;99.90;;;;;;5114360;28;19943;-48
2022/04/26 18:45:53;;;;;;;;;;;17.90;99.90;;;;;;5114617;28;20376;-51